sensor_id;sensor_type;location;lat;lon;timestamp;P1;durP1;ratioP1;P2;durP2;ratioP2
22697;SDS011;11516;51.612;7.510;2023-03-01T00:00:41;11.50;;;8.40;;
22697;SDS011;11516;51.612;7.510;2023-03-01T00:03:11;10.02;;;8.25;;
22697;SDS011;11516;51.612;7.510;2023-03-01T00:05:36;10.85;;;8.80;;
22697;SDS011;11516;51.612;7.510;2023-03-01T00:08:12;14.27;;;9.93;;
22697;SDS011;11516;51.612;7.510;2023-03-01T00:10:37;16.90;;;10.90;;
22697;SDS011;11516;51.612;7.510;2023-03-01T00:13:03;17.80;;;11.07;;
22697;SDS011;11516;51.612;7.510;2023-03-01T00:15:30;19.38;;;11.98;;
22697;SDS011;11516;51.612;7.510;2023-03-01T00:17:56;20.27;;;12.95;;
22697;SDS011;11516;51.612;7.510;2023-03-01T00:20:22;15.77;;;10.95;;
22697;SDS011;11516;51.612;7.510;2023-03-01T00:22:48;14.10;;;10.00;;
22697;SDS011;11516;51.612;7.510;2023-03-01T00:25:13;15.07;;;10.67;;
22697;SDS011;11516;51.612;7.510;2023-03-01T00:27:39;16.40;;;11.15;;
22697;SDS011;11516;51.612;7.510;2023-03-01T00:30:04;11.70;;;8.50;;
22697;SDS011;11516;51.612;7.510;2023-03-01T00:32:30;14.75;;;10.07;;
22697;SDS011;11516;51.612;7.510;2023-03-01T00:34:56;12.52;;;9.02;;
22697;SDS011;11516;51.612;7.510;2023-03-01T00:37:21;11.27;;;9.00;;
22697;SDS011;11516;51.612;7.510;2023-03-01T00:39:48;12.32;;;9.13;;
22697;SDS011;11516;51.612;7.510;2023-03-01T00:42:13;12.60;;;9.40;;
22697;SDS011;11516;51.612;7.510;2023-03-01T00:44:39;13.95;;;8.98;;
22697;SDS011;11516;51.612;7.510;2023-03-01T00:47:05;13.10;;;9.38;;
22697;SDS011;11516;51.612;7.510;2023-03-01T00:49:30;12.67;;;9.27;;
22697;SDS011;11516;51.612;7.510;2023-03-01T00:51:56;12.68;;;9.20;;
22697;SDS011;11516;51.612;7.510;2023-03-01T00:54:22;12.63;;;9.00;;
22697;SDS011;11516;51.612;7.510;2023-03-01T00:56:47;14.73;;;9.52;;
22697;SDS011;11516;51.612;7.510;2023-03-01T00:59:12;11.43;;;9.37;;
22697;SDS011;11516;51.612;7.510;2023-03-01T01:01:38;14.13;;;9.80;;
22697;SDS011;11516;51.612;7.510;2023-03-01T01:04:05;11.63;;;9.20;;
22697;SDS011;11516;51.612;7.510;2023-03-01T01:06:36;12.07;;;9.60;;
22697;SDS011;11516;51.612;7.510;2023-03-01T01:09:10;12.85;;;9.38;;
22697;SDS011;11516;51.612;7.510;2023-03-01T01:11:42;14.25;;;9.70;;
22697;SDS011;11516;51.612;7.510;2023-03-01T01:14:12;11.30;;;9.55;;
22697;SDS011;11516;51.612;7.510;2023-03-01T01:16:38;11.52;;;9.02;;
22697;SDS011;11516;51.612;7.510;2023-03-01T01:19:04;13.02;;;9.65;;
22697;SDS011;11516;51.612;7.510;2023-03-01T01:21:30;11.35;;;9.27;;
22697;SDS011;11516;51.612;7.510;2023-03-01T01:23:56;12.93;;;9.57;;
22697;SDS011;11516;51.612;7.510;2023-03-01T01:26:26;12.57;;;8.98;;
22697;SDS011;11516;51.612;7.510;2023-03-01T01:28:53;11.93;;;9.35;;
22697;SDS011;11516;51.612;7.510;2023-03-01T01:31:19;12.05;;;9.40;;
22697;SDS011;11516;51.612;7.510;2023-03-01T01:33:48;11.48;;;9.23;;
22697;SDS011;11516;51.612;7.510;2023-03-01T01:36:14;12.35;;;9.63;;
22697;SDS011;11516;51.612;7.510;2023-03-01T01:38:40;12.70;;;9.23;;
22697;SDS011;11516;51.612;7.510;2023-03-01T01:41:07;11.55;;;8.93;;
22697;SDS011;11516;51.612;7.510;2023-03-01T01:43:37;12.40;;;8.68;;
22697;SDS011;11516;51.612;7.510;2023-03-01T01:46:52;12.18;;;8.88;;
22697;SDS011;11516;51.612;7.510;2023-03-01T01:49:01;14.38;;;9.13;;
22697;SDS011;11516;51.612;7.510;2023-03-01T01:51:37;10.60;;;8.93;;
22697;SDS011;11516;51.612;7.510;2023-03-01T01:54:12;13.18;;;9.85;;
22697;SDS011;11516;51.612;7.510;2023-03-01T01:56:44;12.60;;;9.25;;
22697;SDS011;11516;51.612;7.510;2023-03-01T01:59:14;12.15;;;9.40;;
22697;SDS011;11516;51.612;7.510;2023-03-01T02:01:40;11.07;;;9.30;;
22697;SDS011;11516;51.612;7.510;2023-03-01T02:04:05;15.18;;;9.80;;
22697;SDS011;11516;51.612;7.510;2023-03-01T02:06:36;12.13;;;9.13;;
22697;SDS011;11516;51.612;7.510;2023-03-01T02:09:05;12.40;;;9.27;;
22697;SDS011;11516;51.612;7.510;2023-03-01T02:11:36;10.40;;;9.13;;
22697;SDS011;11516;51.612;7.510;2023-03-01T02:14:02;12.00;;;9.70;;
22697;SDS011;11516;51.612;7.510;2023-03-01T02:16:28;13.30;;;9.70;;
22697;SDS011;11516;51.612;7.510;2023-03-01T02:18:55;10.90;;;9.30;;
22697;SDS011;11516;51.612;7.510;2023-03-01T02:21:30;11.82;;;9.75;;
22697;SDS011;11516;51.612;7.510;2023-03-01T02:24:43;12.48;;;9.98;;
22697;SDS011;11516;51.612;7.510;2023-03-01T02:27:18;11.80;;;9.25;;
22697;SDS011;11516;51.612;7.510;2023-03-01T02:29:49;11.75;;;9.60;;
22697;SDS011;11516;51.612;7.510;2023-03-01T02:32:15;12.20;;;9.80;;
22697;SDS011;11516;51.612;7.510;2023-03-01T02:34:46;11.98;;;10.23;;
22697;SDS011;11516;51.612;7.510;2023-03-01T02:37:13;10.50;;;9.13;;
22697;SDS011;11516;51.612;7.510;2023-03-01T02:39:44;12.07;;;9.20;;
22697;SDS011;11516;51.612;7.510;2023-03-01T02:42:14;12.88;;;10.13;;
22697;SDS011;11516;51.612;7.510;2023-03-01T02:44:43;12.73;;;9.85;;
22697;SDS011;11516;51.612;7.510;2023-03-01T02:47:09;15.18;;;9.75;;
22697;SDS011;11516;51.612;7.510;2023-03-01T02:49:35;12.10;;;9.77;;
22697;SDS011;11516;51.612;7.510;2023-03-01T02:54:39;13.32;;;9.80;;
22697;SDS011;11516;51.612;7.510;2023-03-01T02:57:12;13.70;;;10.02;;
22697;SDS011;11516;51.612;7.510;2023-03-01T02:59:37;13.80;;;10.03;;
22697;SDS011;11516;51.612;7.510;2023-03-01T03:02:06;11.75;;;9.63;;
22697;SDS011;11516;51.612;7.510;2023-03-01T03:04:32;13.02;;;9.85;;
22697;SDS011;11516;51.612;7.510;2023-03-01T03:06:58;13.25;;;10.05;;
22697;SDS011;11516;51.612;7.510;2023-03-01T03:09:23;11.73;;;9.77;;
22697;SDS011;11516;51.612;7.510;2023-03-01T03:11:49;11.65;;;9.68;;
22697;SDS011;11516;51.612;7.510;2023-03-01T03:14:15;11.63;;;9.03;;
22697;SDS011;11516;51.612;7.510;2023-03-01T03:16:42;12.50;;;9.68;;
22697;SDS011;11516;51.612;7.510;2023-03-01T03:19:10;13.30;;;9.80;;
22697;SDS011;11516;51.612;7.510;2023-03-01T03:21:36;14.13;;;10.52;;
22697;SDS011;11516;51.612;7.510;2023-03-01T03:24:02;11.60;;;9.63;;
22697;SDS011;11516;51.612;7.510;2023-03-01T03:26:28;13.98;;;9.70;;
22697;SDS011;11516;51.612;7.510;2023-03-01T03:28:54;11.88;;;9.60;;
22697;SDS011;11516;51.612;7.510;2023-03-01T03:31:19;13.70;;;9.73;;
22697;SDS011;11516;51.612;7.510;2023-03-01T03:33:45;12.40;;;9.13;;
22697;SDS011;11516;51.612;7.510;2023-03-01T03:36:14;11.35;;;9.73;;
22697;SDS011;11516;51.612;7.510;2023-03-01T03:38:44;13.88;;;10.30;;
22697;SDS011;11516;51.612;7.510;2023-03-01T03:41:10;12.60;;;10.00;;
22697;SDS011;11516;51.612;7.510;2023-03-01T03:43:37;12.20;;;9.48;;
22697;SDS011;11516;51.612;7.510;2023-03-01T03:46:04;12.07;;;9.77;;
22697;SDS011;11516;51.612;7.510;2023-03-01T03:48:32;12.57;;;10.13;;
22697;SDS011;11516;51.612;7.510;2023-03-01T03:50:59;12.30;;;9.88;;
22697;SDS011;11516;51.612;7.510;2023-03-01T03:53:25;13.70;;;10.60;;
22697;SDS011;11516;51.612;7.510;2023-03-01T03:55:53;13.05;;;10.48;;
22697;SDS011;11516;51.612;7.510;2023-03-01T03:58:19;13.00;;;10.45;;
22697;SDS011;11516;51.612;7.510;2023-03-01T04:00:46;14.23;;;10.43;;
22697;SDS011;11516;51.612;7.510;2023-03-01T04:03:13;14.10;;;10.80;;
22697;SDS011;11516;51.612;7.510;2023-03-01T04:05:40;15.90;;;10.48;;
22697;SDS011;11516;51.612;7.510;2023-03-01T04:08:06;13.80;;;10.18;;
22697;SDS011;11516;51.612;7.510;2023-03-01T04:10:33;14.32;;;10.13;;
22697;SDS011;11516;51.612;7.510;2023-03-01T04:13:02;14.80;;;10.70;;
22697;SDS011;11516;51.612;7.510;2023-03-01T04:15:28;17.02;;;10.80;;
22697;SDS011;11516;51.612;7.510;2023-03-01T04:17:54;13.60;;;10.13;;
22697;SDS011;11516;51.612;7.510;2023-03-01T04:20:21;14.95;;;10.48;;
22697;SDS011;11516;51.612;7.510;2023-03-01T04:22:51;16.95;;;10.82;;
22697;SDS011;11516;51.612;7.510;2023-03-01T04:25:22;13.40;;;10.82;;
22697;SDS011;11516;51.612;7.510;2023-03-01T04:27:47;17.08;;;11.13;;
22697;SDS011;11516;51.612;7.510;2023-03-01T04:30:13;14.33;;;11.40;;
22697;SDS011;11516;51.612;7.510;2023-03-01T04:32:39;15.43;;;11.10;;
22697;SDS011;11516;51.612;7.510;2023-03-01T04:35:04;16.17;;;10.70;;
22697;SDS011;11516;51.612;7.510;2023-03-01T04:37:30;16.80;;;11.80;;
22697;SDS011;11516;51.612;7.510;2023-03-01T04:39:56;16.73;;;11.63;;
22697;SDS011;11516;51.612;7.510;2023-03-01T04:42:21;17.70;;;11.87;;
22697;SDS011;11516;51.612;7.510;2023-03-01T04:44:46;15.63;;;11.20;;
22697;SDS011;11516;51.612;7.510;2023-03-01T04:47:12;16.42;;;11.95;;
22697;SDS011;11516;51.612;7.510;2023-03-01T04:49:38;14.77;;;11.67;;
22697;SDS011;11516;51.612;7.510;2023-03-01T04:52:04;17.43;;;11.13;;
22697;SDS011;11516;51.612;7.510;2023-03-01T04:54:33;17.92;;;11.90;;
22697;SDS011;11516;51.612;7.510;2023-03-01T04:57:00;17.42;;;11.98;;
22697;SDS011;11516;51.612;7.510;2023-03-01T04:59:26;17.33;;;11.98;;
22697;SDS011;11516;51.612;7.510;2023-03-01T05:01:53;19.45;;;12.38;;
22697;SDS011;11516;51.612;7.510;2023-03-01T05:04:23;17.02;;;11.43;;
22697;SDS011;11516;51.612;7.510;2023-03-01T05:06:49;15.82;;;11.38;;
22697;SDS011;11516;51.612;7.510;2023-03-01T05:09:15;16.85;;;11.07;;
22697;SDS011;11516;51.612;7.510;2023-03-01T05:11:40;16.07;;;11.33;;
22697;SDS011;11516;51.612;7.510;2023-03-01T05:14:06;17.90;;;11.33;;
22697;SDS011;11516;51.612;7.510;2023-03-01T05:16:33;18.05;;;11.70;;
22697;SDS011;11516;51.612;7.510;2023-03-01T05:18:59;18.05;;;11.70;;
22697;SDS011;11516;51.612;7.510;2023-03-01T05:21:25;16.00;;;12.43;;
22697;SDS011;11516;51.612;7.510;2023-03-01T05:23:51;15.70;;;12.35;;
22697;SDS011;11516;51.612;7.510;2023-03-01T05:26:17;16.25;;;12.10;;
22697;SDS011;11516;51.612;7.510;2023-03-01T05:28:46;16.55;;;12.25;;
22697;SDS011;11516;51.612;7.510;2023-03-01T05:31:12;15.80;;;12.00;;
22697;SDS011;11516;51.612;7.510;2023-03-01T05:33:38;17.50;;;12.43;;
22697;SDS011;11516;51.612;7.510;2023-03-01T05:36:06;17.05;;;11.35;;
22697;SDS011;11516;51.612;7.510;2023-03-01T05:38:33;18.85;;;11.93;;
22697;SDS011;11516;51.612;7.510;2023-03-01T05:40:59;18.75;;;12.23;;
22697;SDS011;11516;51.612;7.510;2023-03-01T05:43:24;15.37;;;11.90;;
22697;SDS011;11516;51.612;7.510;2023-03-01T05:45:50;16.23;;;11.82;;
22697;SDS011;11516;51.612;7.510;2023-03-01T05:48:16;15.30;;;11.73;;
22697;SDS011;11516;51.612;7.510;2023-03-01T05:50:42;16.20;;;12.23;;
22697;SDS011;11516;51.612;7.510;2023-03-01T05:53:10;16.67;;;11.85;;
22697;SDS011;11516;51.612;7.510;2023-03-01T05:55:38;14.63;;;11.93;;
22697;SDS011;11516;51.612;7.510;2023-03-01T05:58:06;15.23;;;12.23;;
22697;SDS011;11516;51.612;7.510;2023-03-01T06:00:36;15.43;;;11.88;;
22697;SDS011;11516;51.612;7.510;2023-03-01T06:03:01;16.90;;;12.07;;
22697;SDS011;11516;51.612;7.510;2023-03-01T06:05:28;15.23;;;11.75;;
22697;SDS011;11516;51.612;7.510;2023-03-01T06:07:57;16.20;;;12.00;;
22697;SDS011;11516;51.612;7.510;2023-03-01T06:10:24;15.88;;;11.93;;
22697;SDS011;11516;51.612;7.510;2023-03-01T06:12:50;15.30;;;11.77;;
22697;SDS011;11516;51.612;7.510;2023-03-01T06:15:15;15.43;;;12.30;;
22697;SDS011;11516;51.612;7.510;2023-03-01T06:17:42;17.50;;;12.48;;
22697;SDS011;11516;51.612;7.510;2023-03-01T06:20:10;14.90;;;10.85;;
22697;SDS011;11516;51.612;7.510;2023-03-01T06:22:45;20.30;;;13.15;;
22697;SDS011;11516;51.612;7.510;2023-03-01T06:25:12;19.15;;;13.50;;
22697;SDS011;11516;51.612;7.510;2023-03-01T06:27:39;19.33;;;13.65;;
22697;SDS011;11516;51.612;7.510;2023-03-01T06:30:05;20.35;;;13.25;;
22697;SDS011;11516;51.612;7.510;2023-03-01T06:32:32;16.77;;;12.70;;
22697;SDS011;11516;51.612;7.510;2023-03-01T06:34:58;17.75;;;12.70;;
22697;SDS011;11516;51.612;7.510;2023-03-01T06:37:24;18.93;;;12.60;;
22697;SDS011;11516;51.612;7.510;2023-03-01T06:39:50;18.40;;;13.05;;
22697;SDS011;11516;51.612;7.510;2023-03-01T06:42:16;18.47;;;13.60;;
22697;SDS011;11516;51.612;7.510;2023-03-01T06:44:41;16.30;;;11.93;;
22697;SDS011;11516;51.612;7.510;2023-03-01T06:47:07;18.33;;;12.87;;
22697;SDS011;11516;51.612;7.510;2023-03-01T06:49:32;15.88;;;12.77;;
22697;SDS011;11516;51.612;7.510;2023-03-01T06:51:58;17.27;;;12.80;;
22697;SDS011;11516;51.612;7.510;2023-03-01T06:54:23;16.90;;;12.73;;
22697;SDS011;11516;51.612;7.510;2023-03-01T06:56:49;18.02;;;12.30;;
22697;SDS011;11516;51.612;7.510;2023-03-01T06:59:16;16.98;;;12.18;;
22697;SDS011;11516;51.612;7.510;2023-03-01T07:01:42;16.55;;;12.27;;
22697;SDS011;11516;51.612;7.510;2023-03-01T07:04:08;18.85;;;12.20;;
22697;SDS011;11516;51.612;7.510;2023-03-01T07:06:34;17.52;;;13.02;;
22697;SDS011;11516;51.612;7.510;2023-03-01T07:09:00;18.10;;;12.67;;
22697;SDS011;11516;51.612;7.510;2023-03-01T07:11:25;16.23;;;12.53;;
22697;SDS011;11516;51.612;7.510;2023-03-01T07:13:51;17.60;;;12.65;;
22697;SDS011;11516;51.612;7.510;2023-03-01T07:16:16;17.20;;;13.50;;
22697;SDS011;11516;51.612;7.510;2023-03-01T07:18:42;18.98;;;12.80;;
22697;SDS011;11516;51.612;7.510;2023-03-01T07:21:08;18.57;;;12.93;;
22697;SDS011;11516;51.612;7.510;2023-03-01T07:23:36;17.77;;;12.57;;
22697;SDS011;11516;51.612;7.510;2023-03-01T07:26:01;18.23;;;12.97;;
22697;SDS011;11516;51.612;7.510;2023-03-01T07:28:27;17.88;;;13.10;;
22697;SDS011;11516;51.612;7.510;2023-03-01T07:30:53;16.90;;;12.75;;
22697;SDS011;11516;51.612;7.510;2023-03-01T07:33:20;16.23;;;12.43;;
22697;SDS011;11516;51.612;7.510;2023-03-01T07:35:46;16.93;;;12.40;;
22697;SDS011;11516;51.612;7.510;2023-03-01T07:38:11;18.87;;;12.33;;
22697;SDS011;11516;51.612;7.510;2023-03-01T07:40:37;16.15;;;12.23;;
22697;SDS011;11516;51.612;7.510;2023-03-01T07:43:02;14.27;;;12.03;;
22697;SDS011;11516;51.612;7.510;2023-03-01T07:45:28;14.55;;;12.15;;
22697;SDS011;11516;51.612;7.510;2023-03-01T07:47:54;22.65;;;12.70;;
22697;SDS011;11516;51.612;7.510;2023-03-01T07:50:20;14.10;;;10.95;;
22697;SDS011;11516;51.612;7.510;2023-03-01T07:52:47;16.97;;;12.80;;
22697;SDS011;11516;51.612;7.510;2023-03-01T07:55:14;15.55;;;12.10;;
22697;SDS011;11516;51.612;7.510;2023-03-01T07:57:40;15.55;;;12.18;;
22697;SDS011;11516;51.612;7.510;2023-03-01T08:00:05;14.93;;;11.57;;
22697;SDS011;11516;51.612;7.510;2023-03-01T08:02:32;15.93;;;12.63;;
22697;SDS011;11516;51.612;7.510;2023-03-01T08:04:58;14.90;;;11.73;;
22697;SDS011;11516;51.612;7.510;2023-03-01T08:07:23;13.35;;;10.93;;
22697;SDS011;11516;51.612;7.510;2023-03-01T08:09:49;12.53;;;10.50;;
22697;SDS011;11516;51.612;7.510;2023-03-01T08:12:14;14.75;;;10.77;;
22697;SDS011;11516;51.612;7.510;2023-03-01T08:14:41;18.13;;;11.70;;
22697;SDS011;11516;51.612;7.510;2023-03-01T08:17:07;14.83;;;11.47;;
22697;SDS011;11516;51.612;7.510;2023-03-01T08:19:33;15.50;;;11.30;;
22697;SDS011;11516;51.612;7.510;2023-03-01T08:21:59;13.05;;;10.73;;
22697;SDS011;11516;51.612;7.510;2023-03-01T08:24:26;15.20;;;10.98;;
22697;SDS011;11516;51.612;7.510;2023-03-01T08:26:52;13.18;;;10.32;;
22697;SDS011;11516;51.612;7.510;2023-03-01T08:29:17;11.93;;;9.77;;
22697;SDS011;11516;51.612;7.510;2023-03-01T08:31:43;14.57;;;10.95;;
22697;SDS011;11516;51.612;7.510;2023-03-01T08:34:10;15.05;;;10.82;;
22697;SDS011;11516;51.612;7.510;2023-03-01T08:36:38;14.30;;;10.35;;
22697;SDS011;11516;51.612;7.510;2023-03-01T08:39:05;12.68;;;10.00;;
22697;SDS011;11516;51.612;7.510;2023-03-01T08:41:31;14.35;;;10.20;;
22697;SDS011;11516;51.612;7.510;2023-03-01T08:43:57;15.05;;;10.70;;
22697;SDS011;11516;51.612;7.510;2023-03-01T08:46:24;18.13;;;10.73;;
22697;SDS011;11516;51.612;7.510;2023-03-01T08:48:51;12.80;;;9.93;;
22697;SDS011;11516;51.612;7.510;2023-03-01T08:51:17;14.33;;;10.30;;
22697;SDS011;11516;51.612;7.510;2023-03-01T08:53:43;14.25;;;10.45;;
22697;SDS011;11516;51.612;7.510;2023-03-01T08:56:09;14.32;;;10.38;;
22697;SDS011;11516;51.612;7.510;2023-03-01T08:58:36;12.95;;;9.75;;
22697;SDS011;11516;51.612;7.510;2023-03-01T09:01:06;13.32;;;10.40;;
22697;SDS011;11516;51.612;7.510;2023-03-01T09:03:36;13.13;;;10.07;;
22697;SDS011;11516;51.612;7.510;2023-03-01T09:06:02;14.57;;;10.47;;
22697;SDS011;11516;51.612;7.510;2023-03-01T09:08:29;12.50;;;9.85;;
22697;SDS011;11516;51.612;7.510;2023-03-01T09:10:55;13.63;;;9.73;;
22697;SDS011;11516;51.612;7.510;2023-03-01T09:13:21;15.37;;;11.10;;
22697;SDS011;11516;51.612;7.510;2023-03-01T09:15:49;14.98;;;10.70;;
22697;SDS011;11516;51.612;7.510;2023-03-01T09:18:15;13.60;;;10.37;;
22697;SDS011;11516;51.612;7.510;2023-03-01T09:20:41;13.60;;;10.55;;
22697;SDS011;11516;51.612;7.510;2023-03-01T09:23:06;14.57;;;10.73;;
22697;SDS011;11516;51.612;7.510;2023-03-01T09:25:33;11.88;;;9.27;;
22697;SDS011;11516;51.612;7.510;2023-03-01T09:27:59;14.23;;;9.55;;
22697;SDS011;11516;51.612;7.510;2023-03-01T09:30:25;12.93;;;9.38;;
22697;SDS011;11516;51.612;7.510;2023-03-01T09:32:51;14.10;;;9.25;;
22697;SDS011;11516;51.612;7.510;2023-03-01T09:35:17;11.53;;;9.27;;
22697;SDS011;11516;51.612;7.510;2023-03-01T09:37:44;13.02;;;10.10;;
22697;SDS011;11516;51.612;7.510;2023-03-01T09:40:15;14.82;;;9.40;;
22697;SDS011;11516;51.612;7.510;2023-03-01T09:47:57;11.25;;;8.75;;
22697;SDS011;11516;51.612;7.510;2023-03-01T09:50:23;12.38;;;8.60;;
22697;SDS011;11516;51.612;7.510;2023-03-01T09:55:37;12.10;;;8.70;;
22697;SDS011;11516;51.612;7.510;2023-03-01T10:01:02;10.50;;;7.72;;
22697;SDS011;11516;51.612;7.510;2023-03-01T10:03:46;11.40;;;7.80;;
22697;SDS011;11516;51.612;7.510;2023-03-01T10:06:26;11.57;;;7.40;;
22697;SDS011;11516;51.612;7.510;2023-03-01T10:08:56;13.15;;;7.75;;
22697;SDS011;11516;51.612;7.510;2023-03-01T10:11:38;9.43;;;6.93;;
22697;SDS011;11516;51.612;7.510;2023-03-01T10:14:15;8.57;;;6.60;;
22697;SDS011;11516;51.612;7.510;2023-03-01T10:17:04;9.85;;;6.88;;
22697;SDS011;11516;51.612;7.510;2023-03-01T10:22:13;10.38;;;6.28;;
22697;SDS011;11516;51.612;7.510;2023-03-01T10:24:49;10.37;;;7.17;;
22697;SDS011;11516;51.612;7.510;2023-03-01T10:32:50;9.27;;;6.30;;
22697;SDS011;11516;51.612;7.510;2023-03-01T10:38:08;9.93;;;6.20;;
22697;SDS011;11516;51.612;7.510;2023-03-01T10:40:35;11.82;;;7.05;;
22697;SDS011;11516;51.612;7.510;2023-03-01T10:43:14;10.52;;;6.45;;
22697;SDS011;11516;51.612;7.510;2023-03-01T10:45:39;8.87;;;6.00;;
22697;SDS011;11516;51.612;7.510;2023-03-01T10:50:37;8.80;;;6.45;;
22697;SDS011;11516;51.612;7.510;2023-03-01T10:53:04;10.00;;;6.38;;
22697;SDS011;11516;51.612;7.510;2023-03-01T10:55:41;10.05;;;6.70;;
22697;SDS011;11516;51.612;7.510;2023-03-01T10:58:19;9.13;;;6.47;;
22697;SDS011;11516;51.612;7.510;2023-03-01T11:03:37;8.45;;;6.30;;
22697;SDS011;11516;51.612;7.510;2023-03-01T11:06:05;8.33;;;6.53;;
22697;SDS011;11516;51.612;7.510;2023-03-01T11:08:46;8.80;;;6.93;;
22697;SDS011;11516;51.612;7.510;2023-03-01T11:11:16;8.90;;;6.63;;
22697;SDS011;11516;51.612;7.510;2023-03-01T11:18:57;10.50;;;7.72;;
22697;SDS011;11516;51.612;7.510;2023-03-01T11:24:40;10.13;;;7.25;;
22697;SDS011;11516;51.612;7.510;2023-03-01T11:30:05;9.95;;;6.97;;
22697;SDS011;11516;51.612;7.510;2023-03-01T11:33:05;9.63;;;6.90;;
22697;SDS011;11516;51.612;7.510;2023-03-01T11:35:55;10.73;;;7.20;;
22697;SDS011;11516;51.612;7.510;2023-03-01T11:38:27;10.10;;;6.95;;
22697;SDS011;11516;51.612;7.510;2023-03-01T11:40:59;7.90;;;6.60;;
22697;SDS011;11516;51.612;7.510;2023-03-01T11:43:47;11.13;;;6.80;;
22697;SDS011;11516;51.612;7.510;2023-03-01T11:51:18;8.73;;;6.97;;
22697;SDS011;11516;51.612;7.510;2023-03-01T11:54:00;8.48;;;6.75;;
22697;SDS011;11516;51.612;7.510;2023-03-01T11:56:31;9.15;;;6.47;;
22697;SDS011;11516;51.612;7.510;2023-03-01T11:59:09;8.70;;;6.53;;
22697;SDS011;11516;51.612;7.510;2023-03-01T12:10:27;8.03;;;6.03;;
22697;SDS011;11516;51.612;7.510;2023-03-01T12:13:18;9.75;;;6.75;;
22697;SDS011;11516;51.612;7.510;2023-03-01T12:18:41;8.77;;;6.53;;
22697;SDS011;11516;51.612;7.510;2023-03-01T12:26:53;9.43;;;6.78;;
22697;SDS011;11516;51.612;7.510;2023-03-01T12:46:10;8.00;;;7.10;;
22697;SDS011;11516;51.612;7.510;2023-03-01T12:51:17;9.32;;;6.90;;
22697;SDS011;11516;51.612;7.510;2023-03-01T12:53:47;9.05;;;7.10;;
22697;SDS011;11516;51.612;7.510;2023-03-01T12:56:16;9.82;;;6.70;;
22697;SDS011;11516;51.612;7.510;2023-03-01T13:07:41;9.20;;;7.30;;
22697;SDS011;11516;51.612;7.510;2023-03-01T13:13:01;8.63;;;7.32;;
22697;SDS011;11516;51.612;7.510;2023-03-01T13:15:29;8.88;;;6.97;;
22697;SDS011;11516;51.612;7.510;2023-03-01T13:20:47;9.18;;;6.82;;
22697;SDS011;11516;51.612;7.510;2023-03-01T13:28:41;11.10;;;6.87;;
22697;SDS011;11516;51.612;7.510;2023-03-01T13:33:46;18.93;;;8.37;;
22697;SDS011;11516;51.612;7.510;2023-03-01T13:36:45;10.10;;;7.40;;
22697;SDS011;11516;51.612;7.510;2023-03-01T13:46:59;8.85;;;7.05;;
22697;SDS011;11516;51.612;7.510;2023-03-01T13:55:00;10.75;;;7.38;;
22697;SDS011;11516;51.612;7.510;2023-03-01T13:57:38;9.50;;;7.60;;
22697;SDS011;11516;51.612;7.510;2023-03-01T14:00:04;8.65;;;7.38;;
22697;SDS011;11516;51.612;7.510;2023-03-01T14:02:31;8.77;;;6.93;;
22697;SDS011;11516;51.612;7.510;2023-03-01T14:04:57;9.05;;;7.22;;
22697;SDS011;11516;51.612;7.510;2023-03-01T14:07:24;8.60;;;6.97;;
22697;SDS011;11516;51.612;7.510;2023-03-01T14:09:55;8.07;;;7.25;;
22697;SDS011;11516;51.612;7.510;2023-03-01T14:15:39;10.45;;;7.40;;
22697;SDS011;11516;51.612;7.510;2023-03-01T14:18:13;14.00;;;9.57;;
22697;SDS011;11516;51.612;7.510;2023-03-01T14:20:51;8.45;;;7.00;;
22697;SDS011;11516;51.612;7.510;2023-03-01T14:23:18;8.48;;;6.65;;
22697;SDS011;11516;51.612;7.510;2023-03-01T14:28:17;7.87;;;6.60;;
22697;SDS011;11516;51.612;7.510;2023-03-01T14:30:43;10.85;;;7.43;;
22697;SDS011;11516;51.612;7.510;2023-03-01T14:36:12;10.80;;;7.10;;
22697;SDS011;11516;51.612;7.510;2023-03-01T14:38:39;10.00;;;6.88;;
22697;SDS011;11516;51.612;7.510;2023-03-01T14:43:47;8.82;;;6.90;;
22697;SDS011;11516;51.612;7.510;2023-03-01T14:46:21;10.63;;;7.00;;
22697;SDS011;11516;51.612;7.510;2023-03-01T14:48:54;9.05;;;6.47;;
22697;SDS011;11516;51.612;7.510;2023-03-01T14:51:50;8.37;;;6.50;;
22697;SDS011;11516;51.612;7.510;2023-03-01T14:57:18;7.60;;;6.03;;
22697;SDS011;11516;51.612;7.510;2023-03-01T14:59:51;8.23;;;5.72;;
22697;SDS011;11516;51.612;7.510;2023-03-01T15:02:23;8.32;;;5.88;;
22697;SDS011;11516;51.612;7.510;2023-03-01T15:04:52;7.78;;;5.38;;
22697;SDS011;11516;51.612;7.510;2023-03-01T15:07:21;8.18;;;5.30;;
22697;SDS011;11516;51.612;7.510;2023-03-01T15:09:51;8.02;;;5.47;;
22697;SDS011;11516;51.612;7.510;2023-03-01T15:12:36;9.38;;;5.60;;
22697;SDS011;11516;51.612;7.510;2023-03-01T15:18:17;6.82;;;5.25;;
22697;SDS011;11516;51.612;7.510;2023-03-01T15:20:45;6.38;;;4.90;;
22697;SDS011;11516;51.612;7.510;2023-03-01T15:23:28;6.70;;;4.90;;
22697;SDS011;11516;51.612;7.510;2023-03-01T15:25:55;8.60;;;4.68;;
22697;SDS011;11516;51.612;7.510;2023-03-01T15:28:26;6.47;;;4.82;;
22697;SDS011;11516;51.612;7.510;2023-03-01T15:31:03;6.05;;;4.70;;
22697;SDS011;11516;51.612;7.510;2023-03-01T15:33:37;7.03;;;5.10;;
22697;SDS011;11516;51.612;7.510;2023-03-01T15:38:55;6.88;;;5.00;;
22697;SDS011;11516;51.612;7.510;2023-03-01T15:41:24;6.90;;;5.40;;
22697;SDS011;11516;51.612;7.510;2023-03-01T15:43:53;8.20;;;5.38;;
22697;SDS011;11516;51.612;7.510;2023-03-01T15:48:57;8.23;;;5.28;;
22697;SDS011;11516;51.612;7.510;2023-03-01T15:51:29;7.90;;;5.53;;
22697;SDS011;11516;51.612;7.510;2023-03-01T15:54:01;7.22;;;5.35;;
22697;SDS011;11516;51.612;7.510;2023-03-01T15:56:30;7.40;;;5.13;;
22697;SDS011;11516;51.612;7.510;2023-03-01T15:59:02;6.80;;;5.00;;
22697;SDS011;11516;51.612;7.510;2023-03-01T16:01:28;7.75;;;4.88;;
22697;SDS011;11516;51.612;7.510;2023-03-01T16:03:54;7.25;;;5.07;;
22697;SDS011;11516;51.612;7.510;2023-03-01T16:06:19;7.63;;;5.00;;
22697;SDS011;11516;51.612;7.510;2023-03-01T16:08:45;6.60;;;4.90;;
22697;SDS011;11516;51.612;7.510;2023-03-01T16:11:13;6.80;;;4.97;;
22697;SDS011;11516;51.612;7.510;2023-03-01T16:13:41;7.57;;;5.40;;
22697;SDS011;11516;51.612;7.510;2023-03-01T16:16:09;6.60;;;5.40;;
22697;SDS011;11516;51.612;7.510;2023-03-01T16:18:37;7.10;;;5.10;;
22697;SDS011;11516;51.612;7.510;2023-03-01T16:21:03;6.15;;;4.95;;
22697;SDS011;11516;51.612;7.510;2023-03-01T16:23:30;8.18;;;5.18;;
22697;SDS011;11516;51.612;7.510;2023-03-01T16:25:58;7.50;;;5.40;;
22697;SDS011;11516;51.612;7.510;2023-03-01T16:28:25;8.68;;;5.85;;
22697;SDS011;11516;51.612;7.510;2023-03-01T16:30:51;9.00;;;5.40;;
22697;SDS011;11516;51.612;7.510;2023-03-01T16:33:16;8.57;;;5.87;;
22697;SDS011;11516;51.612;7.510;2023-03-01T16:35:42;8.85;;;6.10;;
22697;SDS011;11516;51.612;7.510;2023-03-01T16:38:08;8.60;;;6.22;;
22697;SDS011;11516;51.612;7.510;2023-03-01T16:40:34;9.38;;;6.05;;
22697;SDS011;11516;51.612;7.510;2023-03-01T16:43:00;11.50;;;6.73;;
22697;SDS011;11516;51.612;7.510;2023-03-01T16:45:33;8.75;;;6.07;;
22697;SDS011;11516;51.612;7.510;2023-03-01T16:48:05;9.60;;;6.43;;
22697;SDS011;11516;51.612;7.510;2023-03-01T16:50:31;9.63;;;6.17;;
22697;SDS011;11516;51.612;7.510;2023-03-01T16:52:56;10.77;;;6.40;;
22697;SDS011;11516;51.612;7.510;2023-03-01T16:55:22;9.63;;;6.60;;
22697;SDS011;11516;51.612;7.510;2023-03-01T16:57:48;8.82;;;6.03;;
22697;SDS011;11516;51.612;7.510;2023-03-01T17:00:17;9.93;;;5.80;;
22697;SDS011;11516;51.612;7.510;2023-03-01T17:02:44;8.45;;;5.63;;